LFPN 191200Z AUTO 07005KT 020V120 CAVOK 23/08 Q1024 NOSIG

ElémentsDécodage
LFPN Station météo située sur l'aérodrome de TOUSSUS-LE-NOBLE
191200Z émis le 19 du mois à 12h00 UTC
AUTO Bulletin édité par un automate
07005KT vent du 070°, 05 noeuds
020V120 vent de direction variable entre 020° et 120°
CAVOK Ceiling And Visibility OK
- Visibilité de 10 Km ou plus
- Pas de nuage au-dessous de 1500m ou au-dessous de l'altitude minimale du secteur la plus élevée (si>1500m) et absence de CB
- pas de temps présent significatif
23/08 température 23°C, point de rosée 08°C
 soit une humidité relative de 38%
Q1024 la pression au niveau de la mer (QNH) est de 1024 hPa
NOSIG Pas de changement significatif prévu au cours des deux heures suivant l'heure de l'observation